Time;durP1;ratioP1;P1;durP2;ratioP2;P2;SDS_P1;SDS_P2;PMS_P1;PMS_P2;Temp;Humidity;BMP_temperature;BMP_pressure;BME280_temperature;BME280_humidity;BME280_pressure;Samples;Min_cycle;Max_cycle;Signal;HPM_P1;HPM_P2
2022/11/12 00:00:59;;;;;;;19.33;11.27;;;6.50;99.90;;;;;;5083434;28;20338;-85
2022/11/12 00:03:25;;;;;;;17.77;11.35;;;6.60;99.90;;;;;;5070608;28;20094;-84
2022/11/12 00:05:52;;;;;;;21.17;11.48;;;6.60;99.90;;;;;;5088289;28;20210;-82
2022/11/12 00:08:18;;;;;;;20.77;11.77;;;6.50;99.90;;;;;;5087544;28;20034;-82
2022/11/12 00:10:44;;;;;;;16.80;11.18;;;6.50;99.90;;;;;;5086409;28;20536;-85
2022/11/12 00:13:10;;;;;;;15.63;10.55;;;6.50;99.90;;;;;;5117914;27;20062;-80
2022/11/12 00:15:36;;;;;;;19.05;11.68;;;6.40;99.90;;;;;;5087883;28;20044;-81
2022/11/12 00:18:02;;;;;;;21.27;11.15;;;6.40;99.90;;;;;;5072610;28;20147;-80
2022/11/12 00:20:28;;;;;;;18.70;11.65;;;6.40;99.90;;;;;;5089926;28;20093;-83
2022/11/12 00:22:53;;;;;;;20.48;10.93;;;6.40;99.90;;;;;;5074154;28;20429;-83
2022/11/12 00:25:19;;;;;;;17.77;11.40;;;6.40;99.90;;;;;;5091371;28;20048;-82
2022/11/12 00:27:45;;;;;;;19.75;11.50;;;6.30;99.90;;;;;;5085582;28;20237;-83
2022/11/12 00:30:11;;;;;;;21.92;11.30;;;6.50;99.90;;;;;;5065298;28;20052;-82
2022/11/12 00:32:37;;;;;;;18.65;11.60;;;6.40;99.90;;;;;;5086599;28;20493;-82
2022/11/12 00:35:04;;;;;;;18.90;11.35;;;6.30;99.90;;;;;;5083709;28;20139;-82
2022/11/12 00:37:30;;;;;;;16.10;11.55;;;6.30;99.90;;;;;;5088206;28;20123;-83
2022/11/12 00:39:55;;;;;;;18.48;12.13;;;6.20;99.90;;;;;;5081956;28;20114;-80
2022/11/12 00:42:21;;;;;;;21.02;11.55;;;6.30;99.90;;;;;;5084708;28;20119;-80
2022/11/12 00:44:48;;;;;;;16.90;10.75;;;6.30;99.90;;;;;;5083831;28;20041;-81
2022/11/12 00:47:15;;;;;;;17.77;12.32;;;6.20;99.90;;;;;;5085085;28;20055;-83
2022/11/12 00:49:40;;;;;;;21.98;11.40;;;6.20;99.90;;;;;;5087253;28;20032;-83
2022/11/12 00:52:06;;;;;;;19.42;11.15;;;6.20;99.90;;;;;;5083387;28;20028;-81
2022/11/12 00:54:32;;;;;;;17.63;11.57;;;6.20;99.90;;;;;;5084463;28;20035;-83
2022/11/12 00:56:57;;;;;;;16.52;10.98;;;6.20;99.90;;;;;;5082525;28;20036;-86
2022/11/12 00:59:23;;;;;;;18.95;11.02;;;6.10;99.90;;;;;;5081904;28;20115;-82
2022/11/12 01:01:49;;;;;;;16.92;10.77;;;6.10;99.90;;;;;;5078550;28;20036;-81
2022/11/12 01:04:14;;;;;;;18.35;10.23;;;6.00;99.90;;;;;;5084691;28;20036;-84
2022/11/12 01:06:40;;;;;;;14.35;10.30;;;6.00;99.90;;;;;;5082811;28;20036;-83
2022/11/12 01:09:07;;;;;;;15.75;10.77;;;5.90;99.90;;;;;;5080596;28;20077;-83
2022/11/12 01:11:33;;;;;;;22.02;11.10;;;5.90;99.90;;;;;;5079404;28;20050;-83
2022/11/12 01:14:05;;;;;;;17.45;10.48;;;5.90;99.90;;;;;;5082744;28;20125;-83
2022/11/12 01:16:34;;;;;;;16.50;10.63;;;5.90;99.90;;;;;;5113790;27;20420;-84
2022/11/12 01:19:05;;;;;;;21.27;11.02;;;6.00;99.90;;;;;;5060532;28;20055;-82
2022/11/12 01:21:32;;;;;;;21.77;11.30;;;5.80;99.90;;;;;;5083505;28;20051;-86
2022/11/12 01:24:00;;;;;;;20.58;12.05;;;5.80;99.90;;;;;;5067400;28;20055;-85
2022/11/12 01:26:29;;;;;;;21.40;12.45;;;5.80;99.90;;;;;;5067499;28;20051;-83
2022/11/12 01:28:56;;;;;;;20.75;11.82;;;5.90;99.90;;;;;;5080055;28;20098;-83
2022/11/12 01:31:21;;;;;;;23.27;12.32;;;5.90;99.90;;;;;;5085054;28;20039;-83
2022/11/12 01:33:51;;;;;;;20.13;12.45;;;5.90;99.90;;;;;;5087340;28;20036;-82
2022/11/12 01:36:17;;;;;;;20.60;12.90;;;6.00;99.90;;;;;;5086307;28;20082;-82
2022/11/12 01:38:44;;;;;;;20.77;12.50;;;5.90;99.90;;;;;;5082575;28;20032;-83
2022/11/12 01:41:14;;;;;;;24.50;13.48;;;6.00;99.90;;;;;;5101019;28;20132;-84
2022/11/12 01:43:39;;;;;;;19.00;12.82;;;6.00;99.90;;;;;;5069383;28;20036;-79
2022/11/12 01:46:15;;;;;;;20.75;13.30;;;5.90;99.90;;;;;;5087009;28;20051;-83
2022/11/12 01:49:07;;;;;;;24.02;12.93;;;5.90;99.90;;;;;;5071643;28;20064;-82
2022/11/12 01:51:41;;;;;;;22.40;13.35;;;5.80;99.90;;;;;;5083904;28;20083;-81
2022/11/12 01:54:09;;;;;;;26.35;14.18;;;5.90;99.90;;;;;;5082049;28;20079;-81
2022/11/12 01:56:36;;;;;;;25.30;14.38;;;5.70;99.90;;;;;;5071470;28;20032;-82
2022/11/12 01:59:18;;;;;;;20.80;13.13;;;5.80;99.90;;;;;;5088398;28;20036;-82
2022/11/12 02:02:18;;;;;;;22.00;14.32;;;5.80;99.90;;;;;;5089023;28;20123;-80
2022/11/12 02:04:45;;;;;;;27.80;13.93;;;5.80;99.90;;;;;;5087485;28;20472;-80
2022/11/12 02:07:11;;;;;;;22.38;14.55;;;5.70;99.90;;;;;;5102567;28;20390;-81
2022/11/12 02:09:37;;;;;;;19.10;13.90;;;5.80;99.90;;;;;;5068589;28;20048;-81
2022/11/12 02:12:04;;;;;;;28.10;14.30;;;5.70;99.90;;;;;;5069065;28;20112;-80
2022/11/12 02:14:30;;;;;;;21.85;14.00;;;5.70;99.90;;;;;;5086050;28;20050;-80
2022/11/12 02:16:57;;;;;;;23.25;13.50;;;5.60;99.90;;;;;;5085268;28;20044;-80
2022/11/12 02:19:23;;;;;;;23.42;14.57;;;5.60;99.90;;;;;;5086224;28;20046;-83
2022/11/12 02:21:49;;;;;;;24.70;14.23;;;5.60;99.90;;;;;;5082482;28;20036;-83
2022/11/12 02:24:14;;;;;;;25.77;14.80;;;5.50;99.90;;;;;;5086584;28;20658;-85
2022/11/12 02:26:44;;;;;;;23.20;14.63;;;5.40;99.90;;;;;;5087710;28;20501;-80
2022/11/12 02:29:10;;;;;;;23.88;15.27;;;5.50;99.90;;;;;;5083426;28;20153;-85
2022/11/12 02:31:36;;;;;;;27.42;15.88;;;5.60;99.90;;;;;;5084794;28;20099;-81
2022/11/12 02:34:02;;;;;;;28.88;15.60;;;5.40;99.90;;;;;;5085389;28;20812;-82
2022/11/12 02:36:28;;;;;;;25.70;15.32;;;5.50;99.90;;;;;;5083109;28;20139;-80
2022/11/12 02:38:53;;;;;;;26.23;16.10;;;5.50;99.90;;;;;;5085194;28;20043;-81
2022/11/12 02:41:19;;;;;;;23.70;15.18;;;5.50;99.90;;;;;;5069461;28;20078;-83
2022/11/12 02:43:45;;;;;;;26.25;15.43;;;5.40;99.90;;;;;;5091562;28;20086;-83
2022/11/12 02:46:11;;;;;;;28.20;17.27;;;5.50;99.90;;;;;;5065878;28;20537;-82
2022/11/12 02:48:37;;;;;;;23.48;15.70;;;5.40;99.90;;;;;;5083684;28;20044;-82
2022/11/12 02:51:02;;;;;;;24.85;16.65;;;5.50;99.90;;;;;;5082725;28;20536;-81
2022/11/12 02:53:28;;;;;;;23.60;15.48;;;5.50;99.90;;;;;;5102821;28;20455;-79
2022/11/12 02:55:54;;;;;;;26.85;16.55;;;5.40;99.90;;;;;;5089384;28;20044;-82
2022/11/12 02:58:21;;;;;;;27.42;16.58;;;5.50;99.90;;;;;;5091332;28;20052;-82
2022/11/12 03:00:47;;;;;;;25.95;15.95;;;5.70;99.90;;;;;;5070430;28;20059;-80
2022/11/12 03:03:13;;;;;;;21.08;15.05;;;5.40;99.90;;;;;;5082649;28;20043;-83
2022/11/12 03:05:39;;;;;;;28.20;16.88;;;5.50;99.90;;;;;;5081821;28;20036;-84
2022/11/12 03:08:07;;;;;;;22.67;14.85;;;5.40;99.90;;;;;;5088630;28;20101;-81
2022/11/12 03:10:35;;;;;;;22.88;15.48;;;5.30;99.90;;;;;;5113071;27;20048;-81
2022/11/12 03:13:01;;;;;;;26.10;17.80;;;5.40;99.90;;;;;;5083036;28;20222;-81
2022/11/12 03:15:28;;;;;;;31.38;17.58;;;5.20;99.90;;;;;;5082127;28;20569;-81
2022/11/12 03:17:53;;;;;;;27.33;18.27;;;5.40;99.90;;;;;;5083087;28;20054;-82
2022/11/12 03:20:19;;;;;;;30.00;19.00;;;5.50;99.90;;;;;;5078903;28;20036;-83
2022/11/12 03:23:05;;;;;;;30.17;19.85;;;5.40;99.90;;;;;;5099539;27;20382;-81
2022/11/12 03:25:31;;;;;;;36.17;19.13;;;5.40;99.90;;;;;;5070977;28;20048;-82
2022/11/12 03:28:15;;;;;;;27.17;18.45;;;5.40;99.90;;;;;;5114366;27;20059;-86
2022/11/12 03:30:42;;;;;;;31.50;18.52;;;5.40;99.90;;;;;;5079447;28;20073;-82
2022/11/12 03:33:10;;;;;;;32.38;18.20;;;5.50;99.90;;;;;;5080918;28;20044;-83
2022/11/12 03:35:37;;;;;;;27.27;18.63;;;5.40;99.90;;;;;;5078650;28;20043;-83
2022/11/12 03:38:03;;;;;;;28.17;18.23;;;5.50;99.90;;;;;;5080650;28;20036;-82
2022/11/12 03:40:30;;;;;;;29.33;19.23;;;5.30;99.90;;;;;;5083911;28;20448;-84
2022/11/12 03:42:56;;;;;;;34.28;20.58;;;5.40;99.90;;;;;;5062813;28;20389;-80
2022/11/12 03:45:25;;;;;;;30.35;19.50;;;5.30;99.90;;;;;;5052992;28;20044;-83
2022/11/12 03:47:53;;;;;;;30.42;19.10;;;5.40;99.90;;;;;;5115029;27;20040;-85
2022/11/12 03:50:21;;;;;;;34.28;19.45;;;5.30;99.90;;;;;;5081588;28;20046;-81
2022/11/12 03:52:50;;;;;;;31.80;19.40;;;5.30;99.90;;;;;;5080971;28;20032;-81
2022/11/12 03:55:18;;;;;;;31.13;20.35;;;5.40;99.90;;;;;;5113142;27;20048;-80
2022/11/12 03:57:44;;;;;;;30.38;19.83;;;5.30;99.90;;;;;;5109804;27;20048;-83
2022/11/12 04:00:11;;;;;;;29.48;19.25;;;5.30;99.90;;;;;;5076985;28;20040;-82
2022/11/12 04:02:37;;;;;;;31.85;19.38;;;5.20;99.90;;;;;;5082903;28;20059;-83
2022/11/12 04:10:44;;;;;;;29.15;19.65;;;5.20;99.90;;;;;;5109840;27;20051;-83
2022/11/12 04:13:28;;;;;;;29.35;20.02;;;5.10;99.90;;;;;;5078759;28;20044;-80
2022/11/12 04:21:54;;;;;;;26.33;18.17;;;5.10;99.90;;;;;;5078714;28;20044;-81
2022/11/12 04:27:13;;;;;;;37.97;21.10;;;4.90;99.90;;;;;;5081660;28;20043;-85
2022/11/12 04:32:24;;;;;;;30.00;19.58;;;4.90;99.90;;;;;;5083476;28;20047;-82
2022/11/12 04:34:51;;;;;;;32.15;20.73;;;4.90;99.90;;;;;;5081402;28;20044;-84
2022/11/12 04:37:17;;;;;;;30.90;18.40;;;5.00;99.90;;;;;;5080164;28;20052;-83
2022/11/12 04:39:44;;;;;;;30.63;18.77;;;4.90;99.90;;;;;;5116590;27;20344;-82
2022/11/12 04:45:01;;;;;;;29.10;19.20;;;4.90;99.90;;;;;;5112903;27;20059;-80
2022/11/12 04:47:29;;;;;;;31.08;19.67;;;4.90;99.90;;;;;;5081424;28;20056;-84
2022/11/12 04:49:55;;;;;;;32.08;19.40;;;4.90;99.90;;;;;;5083132;28;20080;-82
2022/11/12 04:52:22;;;;;;;26.52;17.73;;;4.80;99.90;;;;;;5083397;28;20082;-83
2022/11/12 04:54:48;;;;;;;27.73;19.20;;;4.80;99.90;;;;;;5080544;28;20041;-83
2022/11/12 04:57:14;;;;;;;31.42;20.77;;;4.60;99.90;;;;;;5074682;28;20048;-85
2022/11/12 04:59:39;;;;;;;36.47;21.20;;;4.80;99.90;;;;;;5075195;28;20040;-81
2022/11/12 05:02:05;;;;;;;33.03;22.17;;;4.90;99.90;;;;;;5090872;28;20482;-82
2022/11/12 05:04:31;;;;;;;41.13;22.67;;;4.80;99.90;;;;;;5076460;28;20463;-82
2022/11/12 05:06:58;;;;;;;34.75;23.55;;;4.80;99.90;;;;;;5095165;28;20044;-82
2022/11/12 05:09:28;;;;;;;38.60;23.90;;;4.90;99.90;;;;;;5124989;27;20075;-81
2022/11/12 05:11:55;;;;;;;40.90;24.90;;;4.90;99.90;;;;;;5105127;28;20051;-80
2022/11/12 05:14:22;;;;;;;44.78;25.35;;;5.00;99.90;;;;;;5087373;28;20114;-81
2022/11/12 05:16:48;;;;;;;45.72;26.30;;;5.00;99.90;;;;;;5072623;28;20056;-82
2022/11/12 05:19:13;;;;;;;42.72;25.27;;;5.30;99.90;;;;;;5122097;27;20090;-83
2022/11/12 05:24:25;;;;;;;43.40;25.67;;;5.20;99.90;;;;;;5085702;28;20526;-85
2022/11/12 05:26:51;;;;;;;40.63;24.80;;;5.30;99.90;;;;;;5066386;28;20059;-82
2022/11/12 05:29:17;;;;;;;37.47;24.05;;;5.30;99.90;;;;;;5088031;28;20032;-84
2022/11/12 05:31:44;;;;;;;35.80;22.42;;;5.30;99.90;;;;;;5123505;27;20443;-81
2022/11/12 05:34:10;;;;;;;42.40;24.50;;;5.30;99.90;;;;;;5105251;28;20098;-82
2022/11/12 05:36:36;;;;;;;39.13;24.38;;;5.30;99.90;;;;;;5091384;28;20093;-82
2022/11/12 05:39:03;;;;;;;40.00;24.63;;;5.40;99.90;;;;;;5075926;28;20035;-83
2022/11/12 05:41:29;;;;;;;41.83;25.90;;;5.40;99.90;;;;;;5092298;28;20040;-83
2022/11/12 05:43:55;;;;;;;35.97;21.98;;;5.40;99.90;;;;;;5092785;28;20048;-82
2022/11/12 05:46:21;;;;;;;35.75;22.23;;;5.30;99.90;;;;;;5109624;28;20390;-81
2022/11/12 05:48:47;;;;;;;40.35;24.50;;;5.30;99.90;;;;;;5104313;28;20044;-81
2022/11/12 05:51:13;;;;;;;36.67;22.52;;;5.40;99.90;;;;;;5093619;28;20055;-82
2022/11/12 05:53:40;;;;;;;38.88;22.52;;;5.30;99.90;;;;;;5083321;28;20542;-83
2022/11/12 05:56:07;;;;;;;30.55;20.80;;;5.30;99.90;;;;;;5099754;28;20162;-81
2022/11/12 05:58:34;;;;;;;30.70;19.70;;;5.20;99.90;;;;;;5082408;28;20044;-84
2022/11/12 06:01:00;;;;;;;32.88;21.08;;;5.10;99.90;;;;;;5087775;28;20138;-85
2022/11/12 06:03:26;;;;;;;35.10;20.58;;;5.10;99.90;;;;;;5070919;28;20491;-84
2022/11/12 06:05:52;;;;;;;34.10;20.70;;;5.20;99.90;;;;;;5122844;27;20040;-86
2022/11/12 06:08:18;;;;;;;30.85;20.80;;;5.00;99.90;;;;;;5084806;28;20035;-82
2022/11/12 06:10:51;;;;;;;35.10;20.98;;;4.90;99.90;;;;;;5065275;28;20058;-83
2022/11/12 06:13:18;;;;;;;35.13;22.05;;;4.90;99.90;;;;;;5083447;28;20473;-83
2022/11/12 06:15:43;;;;;;;37.28;22.25;;;4.80;99.90;;;;;;5067818;28;20068;-84
2022/11/12 06:18:09;;;;;;;68.90;22.58;;;4.90;99.90;;;;;;5064819;28;20304;-81
2022/11/12 06:20:35;;;;;;;56.90;21.17;;;4.80;99.90;;;;;;5119929;27;20036;-81
2022/11/12 06:23:01;;;;;;;67.80;24.75;;;4.80;99.90;;;;;;5089261;28;20031;-82
2022/11/12 06:25:27;;;;;;;39.38;22.75;;;4.80;99.90;;;;;;5082129;28;20182;-82
2022/11/12 06:27:53;;;;;;;44.90;21.95;;;4.80;99.90;;;;;;5084927;28;20056;-81
2022/11/12 06:30:19;;;;;;;39.83;22.20;;;4.70;99.90;;;;;;5101829;28;20062;-84
2022/11/12 06:32:49;;;;;;;43.95;21.00;;;4.70;99.90;;;;;;5101582;28;20031;-83
2022/11/12 06:35:16;;;;;;;107.35;20.92;;;4.70;99.90;;;;;;5085328;28;20050;-82
2022/11/12 06:37:42;;;;;;;131.35;22.35;;;4.60;99.90;;;;;;5087504;28;20052;-83
2022/11/12 06:40:08;;;;;;;109.38;21.75;;;4.60;99.90;;;;;;5087082;28;20051;-81
2022/11/12 06:42:35;;;;;;;142.82;23.88;;;4.70;99.90;;;;;;5088040;28;20032;-80
2022/11/12 06:45:00;;;;;;;92.78;24.35;;;4.80;99.90;;;;;;5089077;28;20051;-83
2022/11/12 06:47:26;;;;;;;116.22;24.60;;;4.70;99.90;;;;;;5072998;28;20039;-81
2022/11/12 06:49:51;;;;;;;150.27;26.48;;;4.80;99.90;;;;;;5119131;27;20051;-79
2022/11/12 06:52:19;;;;;;;45.13;21.55;;;4.90;99.90;;;;;;5074012;28;20047;-82
2022/11/12 06:54:44;;;;;;;44.33;21.33;;;4.90;99.90;;;;;;5089576;28;20462;-84
2022/11/12 06:57:10;;;;;;;115.55;21.52;;;5.00;99.90;;;;;;5101820;28;20067;-86
2022/11/12 06:59:36;;;;;;;53.45;21.95;;;5.10;99.90;;;;;;5118187;27;20096;-82
2022/11/12 07:02:02;;;;;;;33.53;22.05;;;5.10;99.90;;;;;;5084938;28;20124;-81
2022/11/12 07:04:27;;;;;;;40.10;22.08;;;5.20;99.90;;;;;;5073470;28;20047;-82
2022/11/12 07:06:53;;;;;;;37.65;21.23;;;5.10;99.90;;;;;;5088592;28;20547;-84
2022/11/12 07:09:20;;;;;;;38.78;21.25;;;5.20;99.90;;;;;;5095993;27;20123;-82
2022/11/12 07:11:45;;;;;;;42.35;23.05;;;5.30;99.90;;;;;;5060676;28;20551;-81
2022/11/12 07:14:12;;;;;;;31.00;20.08;;;5.30;99.90;;;;;;5088320;28;20044;-80
2022/11/12 07:16:37;;;;;;;34.90;20.52;;;5.30;99.90;;;;;;5091801;28;20194;-80
2022/11/12 07:19:03;;;;;;;43.35;20.38;;;5.20;99.90;;;;;;5097231;28;20165;-83
2022/11/12 07:21:30;;;;;;;50.42;19.25;;;5.30;99.90;;;;;;5079069;28;20116;-83
2022/11/12 07:23:55;;;;;;;41.83;19.85;;;5.20;99.90;;;;;;5108755;28;20036;-83
2022/11/12 07:26:26;;;;;;;62.13;20.70;;;5.30;99.90;;;;;;5106179;27;20035;-82
2022/11/12 07:28:55;;;;;;;114.70;21.05;;;5.30;99.90;;;;;;5080463;28;20490;-81
2022/11/12 07:31:21;;;;;;;145.90;24.05;;;5.50;99.90;;;;;;5092575;28;20126;-81
2022/11/12 07:33:47;;;;;;;162.18;24.83;;;5.40;99.90;;;;;;5108094;27;20925;-82
2022/11/12 07:36:18;;;;;;;118.88;22.73;;;5.30;99.90;;;;;;5066304;28;20040;-82
2022/11/12 07:38:45;;;;;;;315.33;31.95;;;5.40;99.90;;;;;;5080389;28;20044;-80
2022/11/12 07:41:17;;;;;;;307.67;30.33;;;5.50;99.90;;;;;;5073753;28;20044;-80
2022/11/12 07:43:45;;;;;;;258.40;29.05;;;5.60;99.90;;;;;;5084051;28;20059;-82
2022/11/12 07:46:17;;;;;;;182.20;28.67;;;5.50;99.90;;;;;;5087227;28;20374;-80
2022/11/12 07:48:45;;;;;;;200.23;26.23;;;5.60;99.90;;;;;;5086256;28;20039;-82
2022/11/12 07:51:14;;;;;;;253.60;31.52;;;5.60;99.90;;;;;;5082424;28;20028;-83
2022/11/12 07:53:40;;;;;;;195.52;26.48;;;5.70;99.90;;;;;;5083737;28;20044;-82
2022/11/12 07:56:06;;;;;;;183.75;27.85;;;5.60;99.90;;;;;;5084742;28;20348;-80
2022/11/12 07:58:33;;;;;;;242.52;28.88;;;5.70;99.90;;;;;;5117303;27;20185;-82
2022/11/12 08:01:10;;;;;;;243.15;27.98;;;5.70;99.90;;;;;;5094366;28;20499;-84
2022/11/12 08:03:36;;;;;;;229.75;31.13;;;5.80;99.90;;;;;;5095096;27;20072;-82
2022/11/12 08:06:03;;;;;;;85.03;27.77;;;5.90;99.90;;;;;;5082448;28;20075;-84
2022/11/12 08:08:29;;;;;;;212.10;31.23;;;5.80;99.90;;;;;;5087173;28;20038;-82
2022/11/12 08:10:58;;;;;;;150.50;26.42;;;5.90;99.90;;;;;;5083821;28;20047;-84
2022/11/12 08:13:24;;;;;;;194.10;27.02;;;6.00;99.90;;;;;;5058972;28;20463;-81
2022/11/12 08:15:50;;;;;;;244.25;32.28;;;6.10;99.90;;;;;;5065457;28;20075;-83
2022/11/12 08:18:17;;;;;;;170.40;30.77;;;6.00;99.90;;;;;;5116258;27;20570;-81
2022/11/12 08:20:43;;;;;;;164.90;32.90;;;6.10;99.90;;;;;;5114473;27;20118;-82
2022/11/12 08:23:09;;;;;;;292.52;37.58;;;6.00;99.90;;;;;;5083472;28;20040;-80
2022/11/12 08:25:35;;;;;;;226.48;35.10;;;6.20;99.90;;;;;;5080465;28;20056;-83
2022/11/12 08:28:01;;;;;;;121.50;34.15;;;6.30;99.90;;;;;;5082841;28;20047;-80
2022/11/12 08:30:28;;;;;;;230.00;38.15;;;6.40;99.90;;;;;;5085383;28;20036;-82
2022/11/12 08:33:01;;;;;;;148.45;31.63;;;6.30;99.90;;;;;;5086068;28;20051;-84
2022/11/12 08:35:28;;;;;;;143.55;35.00;;;6.50;99.90;;;;;;5087558;28;20420;-80
2022/11/12 08:37:58;;;;;;;134.15;33.97;;;6.50;99.90;;;;;;5087667;28;20075;-83
2022/11/12 08:40:23;;;;;;;141.10;32.88;;;6.60;99.90;;;;;;5085818;28;20055;-82
2022/11/12 08:42:56;;;;;;;190.05;35.40;;;6.80;99.90;;;;;;5082154;28;20036;-84
2022/11/12 08:45:22;;;;;;;149.77;35.28;;;6.80;99.90;;;;;;5094836;28;20063;-83
2022/11/12 08:47:47;;;;;;;122.45;35.60;;;6.80;99.90;;;;;;5117129;27;20048;-83
2022/11/12 08:50:13;;;;;;;136.38;36.35;;;6.80;99.90;;;;;;5083194;28;20043;-80
2022/11/12 08:52:39;;;;;;;157.15;36.38;;;7.00;99.90;;;;;;5086101;28;20032;-84
2022/11/12 08:55:05;;;;;;;157.73;38.80;;;7.10;99.90;;;;;;5086994;28;20048;-84
2022/11/12 08:57:31;;;;;;;214.63;38.22;;;7.10;99.90;;;;;;5077866;28;20049;-80
2022/11/12 08:59:56;;;;;;;156.05;35.75;;;7.20;99.90;;;;;;5066901;28;20048;-82
2022/11/12 09:02:22;;;;;;;132.20;35.08;;;7.10;99.90;;;;;;5065602;28;20450;-82
2022/11/12 09:04:48;;;;;;;170.80;37.20;;;7.20;99.90;;;;;;5120561;28;20036;-81
2022/11/12 09:07:13;;;;;;;159.90;37.72;;;7.40;99.90;;;;;;5086769;28;20044;-82
2022/11/12 09:09:39;;;;;;;209.70;40.08;;;7.40;99.90;;;;;;5085028;28;20736;-86
2022/11/12 09:12:05;;;;;;;170.23;37.10;;;7.50;99.90;;;;;;5064905;28;20398;-82
2022/11/12 09:14:30;;;;;;;150.93;37.05;;;7.50;99.90;;;;;;5084672;28;20090;-81
2022/11/12 09:16:56;;;;;;;133.30;35.33;;;7.50;99.90;;;;;;5083666;28;20040;-82
2022/11/12 09:19:22;;;;;;;172.00;38.97;;;7.70;99.90;;;;;;5099141;28;20090;-85
2022/11/12 09:21:47;;;;;;;207.55;37.20;;;7.70;99.90;;;;;;5085338;28;20131;-81
2022/11/12 09:24:13;;;;;;;172.95;37.08;;;7.70;99.90;;;;;;5085829;28;20505;-85
2022/11/12 09:26:39;;;;;;;180.00;39.20;;;7.70;99.90;;;;;;5086589;28;20064;-80
2022/11/12 09:29:04;;;;;;;191.20;41.30;;;7.90;99.90;;;;;;5091921;28;20645;-80
2022/11/12 09:31:30;;;;;;;304.02;41.45;;;7.90;99.90;;;;;;5072260;28;20044;-83
2022/11/12 09:33:56;;;;;;;197.23;39.00;;;7.90;99.90;;;;;;5084248;28;20102;-85
2022/11/12 09:36:21;;;;;;;203.23;39.35;;;7.90;99.90;;;;;;5118024;27;20123;-82
2022/11/12 09:38:47;;;;;;;225.57;40.75;;;8.00;99.90;;;;;;5085382;28;20032;-83
2022/11/12 09:41:22;;;;;;;264.73;41.85;;;7.90;99.90;;;;;;5082786;28;20044;-84
2022/11/12 09:43:51;;;;;;;225.18;39.55;;;8.10;99.90;;;;;;5104782;28;20036;-84
2022/11/12 09:46:38;;;;;;;209.98;38.30;;;8.10;99.90;;;;;;5093996;28;20040;-80
2022/11/12 09:49:11;;;;;;;192.27;37.10;;;8.10;99.90;;;;;;5107446;28;20040;-86
2022/11/12 09:51:47;;;;;;;176.75;39.15;;;8.10;99.90;;;;;;5104925;27;20185;-82
2022/11/12 09:54:29;;;;;;;200.88;40.40;;;8.20;99.90;;;;;;5088622;28;20427;-80
2022/11/12 09:56:54;;;;;;;235.32;37.78;;;8.20;99.90;;;;;;5089375;28;20048;-82
2022/11/12 09:59:22;;;;;;;201.98;37.38;;;8.20;99.90;;;;;;5085414;28;20090;-86
2022/11/12 10:02:13;;;;;;;146.05;36.50;;;8.10;99.90;;;;;;5084782;28;20140;-82
2022/11/12 10:04:55;;;;;;;169.63;36.42;;;8.20;99.90;;;;;;5069786;28;20544;-83
2022/11/12 10:07:41;;;;;;;180.65;37.10;;;8.00;99.90;;;;;;5070288;28;20101;-81
2022/11/12 10:10:12;;;;;;;186.77;37.90;;;8.10;99.90;;;;;;5091488;28;20070;-81
2022/11/12 10:12:49;;;;;;;150.52;35.40;;;8.10;99.90;;;;;;5073622;28;20054;-81
2022/11/12 10:18:34;;;;;;;136.13;35.10;;;8.20;99.90;;;;;;5084005;28;20187;-82
2022/11/12 10:21:11;;;;;;;179.23;38.92;;;8.30;99.90;;;;;;5090766;28;20454;-82
2022/11/12 10:23:44;;;;;;;168.27;35.88;;;8.20;99.90;;;;;;5091958;28;20048;-80
2022/11/12 10:26:16;;;;;;;186.77;37.50;;;8.20;99.90;;;;;;5085476;28;20474;-83
2022/11/12 10:28:52;;;;;;;90.45;33.95;;;8.20;99.90;;;;;;5107953;28;20343;-83
2022/11/12 10:31:20;;;;;;;138.65;37.47;;;8.40;99.90;;;;;;5103007;28;20049;-82
2022/11/12 10:33:46;;;;;;;157.90;38.60;;;8.40;99.90;;;;;;5118335;27;20040;-83
2022/11/12 10:36:19;;;;;;;113.50;34.58;;;8.40;99.90;;;;;;5090270;28;20032;-82
2022/11/12 10:38:50;;;;;;;190.23;40.25;;;8.40;99.90;;;;;;5105214;28;20060;-82
2022/11/12 10:41:31;;;;;;;205.88;34.95;;;8.20;99.90;;;;;;5101176;28;20028;-81
2022/11/12 10:43:59;;;;;;;133.65;35.70;;;8.30;99.90;;;;;;5069950;28;20479;-83
2022/11/12 10:46:26;;;;;;;100.93;35.47;;;8.10;99.90;;;;;;5083845;28;20056;-83
2022/11/12 10:48:55;;;;;;;121.60;34.45;;;8.30;99.90;;;;;;5083530;28;20044;-79
2022/11/12 10:51:32;;;;;;;98.63;32.45;;;8.40;99.90;;;;;;5069945;28;20048;-82
2022/11/12 10:54:17;;;;;;;118.97;33.95;;;8.40;99.90;;;;;;5084674;28;20040;-80
2022/11/12 10:56:43;;;;;;;99.82;33.45;;;8.40;99.90;;;;;;5095475;28;20051;-79
2022/11/12 10:59:18;;;;;;;114.30;33.75;;;8.50;99.90;;;;;;5129445;27;20036;-82
2022/11/12 11:01:46;;;;;;;80.65;32.08;;;8.50;99.90;;;;;;5104095;28;20528;-83
2022/11/12 11:04:21;;;;;;;114.03;34.80;;;8.40;99.90;;;;;;5073849;28;20036;-82
2022/11/12 11:06:47;;;;;;;88.90;33.83;;;8.40;99.90;;;;;;5099960;28;20056;-83
2022/11/12 11:09:12;;;;;;;78.80;31.98;;;8.30;99.90;;;;;;5108057;28;20075;-82
2022/11/12 11:11:52;;;;;;;87.60;31.92;;;8.50;99.90;;;;;;5065225;28;20056;-82
2022/11/12 11:14:21;;;;;;;119.45;32.85;;;8.50;99.90;;;;;;5073804;28;20402;-82
2022/11/12 11:16:49;;;;;;;124.00;32.47;;;8.50;99.90;;;;;;5075295;28;20093;-86
2022/11/12 11:19:18;;;;;;;77.15;32.33;;;8.50;99.90;;;;;;5074996;28;20127;-83
2022/11/12 11:21:56;;;;;;;98.43;35.22;;;8.60;99.90;;;;;;5125654;27;20093;-79
2022/11/12 11:24:40;;;;;;;63.22;32.97;;;8.60;99.90;;;;;;5075704;28;20047;-84
2022/11/12 11:27:31;;;;;;;74.57;33.60;;;8.70;99.90;;;;;;5068873;28;20064;-88
2022/11/12 11:30:14;;;;;;;92.78;33.78;;;8.70;99.90;;;;;;5110274;27;20051;-83
2022/11/12 11:32:55;;;;;;;58.63;31.77;;;8.80;99.90;;;;;;5114229;27;20150;-87
2022/11/12 11:35:54;;;;;;;69.07;32.30;;;8.80;99.90;;;;;;5089994;28;20044;-81
2022/11/12 11:38:43;;;;;;;70.00;32.08;;;8.80;99.90;;;;;;5092792;28;20048;-80
2022/11/12 11:41:40;;;;;;;54.22;32.28;;;8.90;99.90;;;;;;5089976;28;20413;-81
2022/11/12 11:44:31;;;;;;;60.95;31.95;;;8.90;99.90;;;;;;5123324;27;20409;-81
2022/11/12 11:47:05;;;;;;;54.78;30.77;;;9.00;99.90;;;;;;5070469;28;20056;-83
2022/11/12 11:49:42;;;;;;;66.18;33.33;;;9.10;99.90;;;;;;5085914;28;20048;-83
2022/11/12 11:52:43;;;;;;;58.30;32.38;;;8.90;99.90;;;;;;5123111;27;20079;-83
2022/11/12 11:55:39;;;;;;;61.25;32.50;;;8.90;99.90;;;;;;5032605;28;20476;-85
2022/11/12 11:58:22;;;;;;;54.72;33.22;;;9.00;99.90;;;;;;5056135;28;20065;-84
2022/11/12 12:01:18;;;;;;;60.00;30.92;;;9.00;99.90;;;;;;5047749;28;20512;-85
2022/11/12 12:04:10;;;;;;;53.55;32.28;;;9.00;99.90;;;;;;4994401;28;20477;-83
2022/11/12 12:07:12;;;;;;;50.42;31.38;;;9.20;99.90;;;;;;5009548;28;20042;-85
2022/11/12 12:09:41;;;;;;;53.42;32.22;;;9.00;99.90;;;;;;4988599;28;20670;-79
2022/11/12 12:12:40;;;;;;;49.53;31.38;;;9.00;99.90;;;;;;4971945;28;20189;-84
2022/11/12 12:15:25;;;;;;;50.28;32.28;;;9.10;99.90;;;;;;4951271;28;20074;-82
2022/11/12 12:18:22;;;;;;;47.83;30.73;;;9.20;99.90;;;;;;4967371;28;20054;-84
2022/11/12 12:21:12;;;;;;;56.33;32.03;;;9.20;99.90;;;;;;4964325;28;20305;-84
2022/11/12 12:23:47;;;;;;;52.88;31.85;;;9.20;99.90;;;;;;4980370;28;20133;-84
2022/11/12 12:26:46;;;;;;;52.50;31.83;;;9.30;99.90;;;;;;4966363;28;20057;-84
2022/11/12 12:29:23;;;;;;;51.72;32.65;;;9.30;99.90;;;;;;4954498;28;20049;-80
2022/11/12 12:32:31;;;;;;;47.33;31.50;;;9.40;99.90;;;;;;4991423;28;20164;-85
2022/11/12 12:35:24;;;;;;;46.85;30.75;;;9.50;99.90;;;;;;4945821;28;20051;-83
2022/11/12 12:38:04;;;;;;;45.85;31.13;;;9.60;99.90;;;;;;4964605;28;20058;-82
2022/11/12 12:41:08;;;;;;;52.85;32.58;;;9.50;99.90;;;;;;4950472;28;20054;-84
2022/11/12 12:43:40;;;;;;;47.00;31.58;;;9.40;99.90;;;;;;4953413;28;20085;-80
2022/11/12 12:46:09;;;;;;;51.28;32.42;;;9.40;99.90;;;;;;4967958;28;20093;-85
2022/11/12 12:48:42;;;;;;;49.67;32.88;;;9.40;99.90;;;;;;4971837;28;20051;-81
2022/11/12 12:51:08;;;;;;;45.92;32.95;;;9.50;99.90;;;;;;4978212;28;20146;-81
2022/11/12 12:53:35;;;;;;;45.00;31.50;;;9.60;99.90;;;;;;5026010;28;20163;-82
2022/11/12 12:56:13;;;;;;;48.38;32.00;;;9.60;99.90;;;;;;5008264;28;21244;-82
2022/11/12 12:58:39;;;;;;;45.08;30.85;;;9.60;99.90;;;;;;5056644;28;20045;-83
2022/11/12 13:01:24;;;;;;;46.63;32.30;;;9.50;99.90;;;;;;5041451;28;20836;-83
2022/11/12 13:04:03;;;;;;;48.53;32.35;;;9.70;99.90;;;;;;5061295;28;20040;-82
2022/11/12 13:06:37;;;;;;;48.50;31.20;;;9.70;99.90;;;;;;5038432;28;20041;-82
2022/11/12 13:09:11;;;;;;;44.58;30.75;;;9.60;99.90;;;;;;5072908;28;20497;-83
2022/11/12 13:14:35;;;;;;;48.92;30.67;;;9.70;99.90;;;;;;5064697;28;20067;-78
2022/11/12 13:17:11;;;;;;;44.80;30.88;;;9.70;99.90;;;;;;5053130;28;20084;-82